Time;durP1;ratioP1;P1;durP2;ratioP2;P2;SDS_P1;SDS_P2;PMS_P1;PMS_P2;Temp;Humidity;BMP_temperature;BMP_pressure;BME280_temperature;BME280_humidity;BME280_pressure;Samples;Min_cycle;Max_cycle;Signal;HPM_P1;HPM_P2
2023/03/29 00:02:06;;;;;;;;;7.40;6.60;;;;;0.81;49.59;100230.44;5054377;28;9004;-81
2023/03/29 00:04:38;;;;;;;;;10.80;9.20;;;;;0.74;49.33;100223.31;5090621;28;8844;-81
2023/03/29 00:07:07;;;;;;;;;5.00;5.00;;;;;0.19;50.78;100235.41;5068021;28;8888;-81
2023/03/29 00:09:37;;;;;;;;;9.60;9.60;;;;;0.04;51.79;100235.78;5065958;28;8868;-82
2023/03/29 00:12:06;;;;;;;;;12.20;10.00;;;;;0.01;51.96;100240.88;5074184;28;8838;-80
2023/03/29 00:14:35;;;;;;;;;9.60;9.60;;;;;0.15;51.64;100245.63;5054462;28;8876;-81
2023/03/29 00:17:05;;;;;;;;;8.80;8.80;;;;;0.18;51.69;100235.34;5070674;28;8854;-80
2023/03/29 00:19:35;;;;;;;;;5.40;5.40;;;;;0.47;50.79;100238.88;5090826;28;8859;-84
2023/03/29 00:22:06;;;;;;;;;9.60;9.60;;;;;0.55;50.74;100237.41;5097085;28;8852;-80
2023/03/29 00:24:35;;;;;;;;;7.80;7.80;;;;;0.01;52.16;100242.56;5094075;28;8862;-81
2023/03/29 00:27:04;;;;;;;;;10.00;10.00;;;;;0.27;51.27;100236.56;5089339;28;8863;-81
2023/03/29 00:29:33;;;;;;;;;9.60;7.80;;;;;0.36;51.38;100237.66;5081483;28;8931;-85
2023/03/29 00:32:02;;;;;;;;;9.40;5.80;;;;;0.42;50.97;100236.13;5071700;28;8852;-84
2023/03/29 00:34:31;;;;;;;;;9.60;8.00;;;;;0.41;50.90;100234.38;5088031;28;8872;-82
2023/03/29 00:37:01;;;;;;;;;7.00;7.00;;;;;0.39;51.04;100223.13;5030579;28;8892;-83
2023/03/29 00:39:32;;;;;;;;;7.40;7.20;;;;;0.40;50.65;100222.28;5004904;28;8878;-81
2023/03/29 00:42:02;;;;;;;;;7.80;7.00;;;;;0.49;50.89;100226.00;5044695;28;8873;-82
2023/03/29 00:44:58;;;;;;;;;6.60;6.60;;;;;0.74;50.19;100228.47;5029516;28;8862;-83
2023/03/29 00:47:33;;;;;;;;;7.20;6.80;;;;;0.62;50.02;100234.16;5023655;28;9026;-85
2023/03/29 00:50:09;;;;;;;;;10.00;7.00;;;;;0.61;50.23;100229.84;5047163;28;8854;-81
2023/03/29 00:52:40;;;;;;;;;9.00;8.80;;;;;0.40;50.11;100230.03;5030984;28;8983;-81
2023/03/29 00:55:17;;;;;;;;;13.60;8.00;;;;;0.20;51.30;100234.59;5041464;28;8977;-81
2023/03/29 00:57:49;;;;;;;;;8.80;7.40;;;;;0.44;50.57;100233.59;5049768;28;9026;-80
2023/03/29 01:00:22;;;;;;;;;9.20;7.60;;;;;0.39;50.65;100223.13;5045613;28;9579;-81
2023/03/29 01:02:54;;;;;;;;;8.00;6.80;;;;;-0.06;51.95;100230.28;5025836;28;8869;-81
2023/03/29 01:05:29;;;;;;;;;7.80;7.00;;;;;-0.02;51.72;100224.38;5037986;28;8864;-83
2023/03/29 01:08:03;;;;;;;;;7.80;7.20;;;;;-0.26;52.71;100227.00;5036861;28;8878;-82
2023/03/29 01:10:40;;;;;;;;;6.60;6.60;;;;;-0.05;52.28;100225.13;5097139;28;8878;-82
2023/03/29 01:13:13;;;;;;;;;7.40;7.40;;;;;-0.08;51.88;100219.00;5079157;28;8855;-83
2023/03/29 01:15:45;;;;;;;;;8.20;7.00;;;;;-0.24;52.71;100215.03;5097843;28;8836;-81
2023/03/29 01:18:20;;;;;;;;;4.80;4.60;;;;;-0.26;52.42;100214.09;5085556;28;8925;-80
2023/03/29 01:21:04;;;;;;;;;8.80;6.60;;;;;-0.16;52.56;100214.47;5082118;28;8832;-80
2023/03/29 01:23:47;;;;;;;;;7.00;5.60;;;;;-0.25;52.67;100213.28;5074556;28;8858;-79
2023/03/29 01:26:29;;;;;;;;;8.20;8.20;;;;;0.03;52.18;100213.38;5078194;28;8859;-81
2023/03/29 01:29:07;;;;;;;;;4.20;4.20;;;;;0.01;51.61;100209.84;5081754;28;8934;-80
2023/03/29 01:31:39;;;;;;;;;7.80;6.20;;;;;-0.09;51.67;100207.78;5049277;28;8908;-79
2023/03/29 01:34:13;;;;;;;;;4.40;4.40;;;;;-0.51;53.50;100205.50;5051364;28;8875;-81
2023/03/29 01:36:48;;;;;;;;;5.20;5.00;;;;;-0.08;52.04;100212.13;5114297;28;8854;-81
2023/03/29 01:39:17;;;;;;;;;7.40;7.40;;;;;0.08;51.55;100209.22;5075718;28;8851;-82
2023/03/29 01:42:00;;;;;;;;;7.60;7.00;;;;;-0.28;52.54;100211.47;5008575;28;8924;-80
2023/03/29 01:44:39;;;;;;;;;12.40;7.20;;;;;0.01;52.03;100207.28;5071560;28;8874;-82
2023/03/29 01:47:13;;;;;;;;;10.20;8.00;;;;;0.36;50.57;100202.31;5071029;28;8854;-82
2023/03/29 01:49:48;;;;;;;;;7.60;7.60;;;;;0.13;51.21;100203.31;5076672;28;8870;-86
2023/03/29 01:52:24;;;;;;;;;10.20;7.80;;;;;-0.01;51.66;100190.84;5071101;28;8858;-85
2023/03/29 01:55:00;;;;;;;;;7.80;7.00;;;;;0.02;51.38;100197.81;5086358;28;8885;-82
2023/03/29 01:57:33;;;;;;;;;11.60;10.40;;;;;-0.39;53.01;100198.19;5052114;28;8901;-81
2023/03/29 02:00:09;;;;;;;;;5.40;5.40;;;;;-0.12;52.23;100194.78;5095524;28;8953;-81
2023/03/29 02:02:44;;;;;;;;;10.40;8.80;;;;;-0.04;52.17;100192.44;5090128;28;9031;-81
2023/03/29 02:05:15;;;;;;;;;6.20;6.20;;;;;0.22;51.32;100191.56;5091601;28;8833;-83
2023/03/29 02:07:47;;;;;;;;;10.40;7.20;;;;;0.23;50.96;100184.69;5079350;28;8931;-81
2023/03/29 02:10:18;;;;;;;;;6.40;6.40;;;;;0.18;50.58;100184.53;5089322;28;9729;-85
2023/03/29 02:12:48;;;;;;;;;5.40;5.40;;;;;0.16;51.20;100191.38;5092498;28;9999;-82
2023/03/29 02:15:20;;;;;;;;;4.60;4.60;;;;;0.03;51.21;100186.66;5090496;28;8856;-82
2023/03/29 02:17:49;;;;;;;;;6.40;4.40;;;;;-0.28;51.93;100188.22;5090555;28;8890;-83
2023/03/29 02:20:24;;;;;;;;;8.20;8.20;;;;;-0.16;51.65;100186.03;5093866;28;9657;-80
2023/03/29 02:23:02;;;;;;;;;7.40;7.40;;;;;-0.32;52.16;100184.63;5090979;28;9592;-82
2023/03/29 02:25:32;;;;;;;;;5.20;4.00;;;;;-0.49;52.27;100190.06;5072596;28;8869;-81
2023/03/29 02:28:01;;;;;;;;;7.40;4.60;;;;;-0.50;51.50;100189.22;5039588;28;8915;-83
2023/03/29 02:30:38;;;;;;;;;5.80;5.60;;;;;-0.07;51.30;100188.03;5088053;28;8904;-82
2023/03/29 02:33:12;;;;;;;;;5.40;5.40;;;;;-0.04;50.44;100198.47;5054768;28;9020;-81
2023/03/29 02:35:48;;;;;;;;;6.20;6.20;;;;;0.19;50.34;100193.16;5033884;28;8872;-87
2023/03/29 02:38:19;;;;;;;;;7.00;5.60;;;;;0.01;50.56;100186.59;5080513;28;8865;-82
2023/03/29 02:40:49;;;;;;;;;7.80;6.40;;;;;0.22;50.39;100191.56;5054552;28;8938;-83
2023/03/29 02:43:20;;;;;;;;;7.20;6.20;;;;;0.26;50.72;100203.75;5083186;28;8971;-80
2023/03/29 02:45:53;;;;;;;;;7.60;6.00;;;;;0.07;50.77;100206.59;5028782;28;8863;-83
2023/03/29 02:48:27;;;;;;;;;9.20;7.20;;;;;0.21;50.78;100196.69;5025362;28;9650;-82
2023/03/29 02:51:01;;;;;;;;;7.20;4.00;;;;;0.21;50.98;100207.03;5050637;28;8976;-81
2023/03/29 02:53:39;;;;;;;;;6.20;6.20;;;;;0.10;50.89;100203.22;5051373;28;8881;-81
2023/03/29 02:56:09;;;;;;;;;7.00;7.00;;;;;0.02;51.53;100211.59;5049219;28;8865;-83
2023/03/29 02:58:38;;;;;;;;;5.60;5.60;;;;;-0.07;51.97;100203.53;5041979;28;8873;-83
2023/03/29 03:01:10;;;;;;;;;5.60;5.60;;;;;-0.31;52.10;100209.66;5081824;28;8965;-85
2023/03/29 03:03:40;;;;;;;;;10.40;7.00;;;;;-0.19;51.87;100216.06;5051207;28;8846;-85
2023/03/29 03:06:11;;;;;;;;;7.00;6.40;;;;;-0.18;51.46;100216.13;5049838;28;8877;-83
2023/03/29 03:08:40;;;;;;;;;7.00;4.80;;;;;-0.02;51.10;100217.50;4984631;28;8874;-82
2023/03/29 03:11:09;;;;;;;;;8.00;7.80;;;;;-0.06;51.42;100223.41;5070520;28;8876;-84
2023/03/29 03:13:38;;;;;;;;;7.80;7.80;;;;;-0.17;51.35;100233.38;5097983;28;8892;-85
2023/03/29 03:16:10;;;;;;;;;5.20;5.20;;;;;-0.45;52.77;100223.78;5073824;28;8845;-82
2023/03/29 03:18:40;;;;;;;;;5.20;5.20;;;;;-0.14;51.78;100225.72;5078409;28;8856;-81
2023/03/29 03:21:10;;;;;;;;;7.80;6.40;;;;;-0.22;51.94;100224.59;5065201;28;8937;-84
2023/03/29 03:23:39;;;;;;;;;8.60;6.80;;;;;-0.37;51.97;100234.38;5045699;28;8871;-82
2023/03/29 03:26:09;;;;;;;;;7.20;7.20;;;;;-0.81;52.59;100237.16;5052796;28;8860;-81
2023/03/29 03:28:40;;;;;;;;;8.80;6.40;;;;;-0.77;53.35;100236.44;5035216;28;8883;-82
2023/03/29 03:31:16;;;;;;;;;5.40;5.40;;;;;-0.43;52.07;100236.78;5052862;28;8985;-84
2023/03/29 03:34:05;;;;;;;;;14.20;13.00;;;;;-0.62;52.59;100243.84;5030032;28;8867;-83
2023/03/29 03:36:56;;;;;;;;;8.40;7.80;;;;;-1.14;54.50;100248.00;5037396;28;8859;-82
2023/03/29 03:39:26;;;;;;;;;8.40;7.40;;;;;-1.07;54.71;100237.91;5042235;28;8876;-83
2023/03/29 03:41:55;;;;;;;;;8.40;7.40;;;;;-1.18;55.04;100251.28;5020452;28;8908;-82
2023/03/29 03:44:24;;;;;;;;;7.80;7.80;;;;;-1.42;55.54;100250.34;5016710;28;8903;-82
2023/03/29 03:47:13;;;;;;;;;7.40;5.20;;;;;-1.18;55.13;100252.97;5012273;28;8855;-84
2023/03/29 03:49:43;;;;;;;;;10.60;9.40;;;;;-1.03;54.84;100248.41;5012813;28;8835;-83
2023/03/29 03:52:14;;;;;;;;;11.00;8.50;;;;;-0.91;54.27;100255.72;4975133;28;8891;-82
2023/03/29 03:54:45;;;;;;;;;8.20;6.40;;;;;-1.31;55.48;100261.97;5012083;28;8871;-83
2023/03/29 03:57:36;;;;;;;;;11.50;11.50;;;;;-0.88;53.91;100260.09;4992108;28;8862;-82
2023/03/29 04:00:17;;;;;;;;;6.20;6.20;;;;;-0.96;54.08;100255.53;4961254;28;8901;-81
2023/03/29 04:02:55;;;;;;;;;9.20;8.20;;;;;-0.69;53.28;100254.81;4992422;28;8940;-83
2023/03/29 04:05:26;;;;;;;;;7.80;7.80;;;;;-0.81;53.37;100260.41;5004832;28;9628;-83
2023/03/29 04:07:56;;;;;;;;;9.20;9.20;;;;;-1.14;54.53;100263.47;5012972;28;8892;-82
2023/03/29 04:10:36;;;;;;;;;15.50;15.50;;;;;-1.65;56.02;100267.50;5012480;28;8864;-84
2023/03/29 04:13:22;;;;;;;;;12.00;10.00;;;;;-1.87;56.85;100266.63;5036553;28;8833;-83
2023/03/29 04:16:14;;;;;;;;;11.40;11.40;;;;;-2.11;57.27;100269.94;5033222;28;8845;-84
2023/03/29 04:18:44;;;;;;;;;9.00;8.20;;;;;-2.05;57.13;100271.91;5015866;28;8882;-84
2023/03/29 04:21:14;;;;;;;;;9.00;6.00;;;;;-2.07;57.70;100266.69;4997482;28;8863;-83
2023/03/29 04:23:46;;;;;;;;;7.50;7.50;;;;;-2.13;57.51;100270.69;4981212;28;8883;-84
2023/03/29 04:26:16;;;;;;;;;9.00;8.50;;;;;-2.23;58.38;100269.41;4992213;28;9707;-83
2023/03/29 04:28:51;;;;;;;;;7.80;7.80;;;;;-2.19;58.22;100273.00;4975946;28;8858;-84
2023/03/29 04:31:33;;;;;;;;;9.75;9.75;;;;;-2.41;58.94;100277.25;4991354;28;8897;-82
2023/03/29 04:34:19;;;;;;;;;9.00;9.00;;;;;-2.05;57.67;100278.72;4952426;28;8846;-82
2023/03/29 04:36:51;;;;;;;;;11.50;9.25;;;;;-2.10;57.94;100279.41;4937823;28;8870;-83
2023/03/29 04:39:30;;;;;;;;;7.60;6.80;;;;;-2.07;57.53;100278.69;4935500;28;8846;-82
2023/03/29 04:42:02;;;;;;;;;6.20;6.20;;;;;-2.03;57.92;100282.25;4935030;28;8882;-83
2023/03/29 04:44:32;;;;;;;;;12.25;10.50;;;;;-2.02;58.06;100289.19;4938637;28;8860;-86
2023/03/29 04:47:04;;;;;;;;;8.50;8.50;;;;;-2.07;57.85;100287.28;4938531;28;8922;-84
2023/03/29 04:49:53;;;;;;;;;7.50;7.50;;;;;-2.33;58.79;100283.59;4932211;29;8872;-83
2023/03/29 04:52:32;;;;;;;;;6.80;6.80;;;;;-1.93;57.84;100289.56;4895852;28;8851;-84
2023/03/29 04:55:21;;;;;;;;;11.60;10.00;;;;;-2.05;57.38;100289.03;4928027;28;8926;-83
2023/03/29 04:58:03;;;;;;;;;9.25;9.00;;;;;-2.13;57.38;100284.47;4955741;28;8880;-83
2023/03/29 05:00:35;;;;;;;;;9.00;9.00;;;;;-1.96;57.27;100286.84;4935669;28;8879;-83
2023/03/29 05:03:27;;;;;;;;;10.25;9.00;;;;;-1.95;57.06;100291.19;4908158;29;8871;-84
2023/03/29 05:06:05;;;;;;;;;15.25;12.75;;;;;-2.00;57.30;100295.25;4870919;29;9601;-82
2023/03/29 05:08:38;;;;;;;;;20.75;16.75;;;;;-1.89;56.90;100296.59;4906174;29;8925;-83
2023/03/29 05:11:27;;;;;;;;;17.50;13.25;;;;;-1.90;56.96;100297.41;4879487;29;8872;-83
2023/03/29 05:14:01;;;;;;;;;12.00;12.00;;;;;-1.78;56.16;100302.19;4880353;29;8892;-86
2023/03/29 05:16:33;;;;;;;;;12.25;12.00;;;;;-1.58;55.46;100296.16;4889911;29;8881;-85
2023/03/29 05:19:06;;;;;;;;;17.50;16.00;;;;;-1.57;55.77;100292.75;4909628;29;8893;-85
2023/03/29 05:21:39;;;;;;;;;19.75;13.75;;;;;-1.68;54.81;100304.31;4926161;29;8957;-84
2023/03/29 05:24:15;;;;;;;;;18.50;18.00;;;;;-1.80;55.05;100302.13;4949339;28;8867;-83
2023/03/29 05:26:55;;;;;;;;;18.00;16.00;;;;;-1.62;54.81;100308.84;4951996;28;8969;-81
2023/03/29 05:29:26;;;;;;;;;21.50;20.75;;;;;-1.70;54.86;100316.28;4976135;28;9594;-83
2023/03/29 05:32:10;;;;;;;;;22.00;21.00;;;;;-1.60;54.36;100313.25;4992653;28;8852;-78
2023/03/29 05:34:39;;;;;;;;;17.00;16.50;;;;;-1.66;54.60;100312.13;5006566;28;8930;-79
2023/03/29 05:37:09;;;;;;;;;18.00;17.25;;;;;-1.53;54.19;100322.13;4989516;28;8852;-81
2023/03/29 05:39:48;;;;;;;;;22.00;20.75;;;;;-1.38;53.71;100315.00;5015730;28;8905;-82
2023/03/29 05:42:22;;;;;;;;;24.50;23.50;;;;;-1.38;53.66;100324.44;5082463;28;8892;-73
2023/03/29 05:45:11;;;;;;;;;23.25;21.25;;;;;-1.36;53.81;100327.94;5067295;28;8838;-71
2023/03/29 05:47:41;;;;;;;;;19.00;18.00;;;;;-1.36;52.60;100326.25;5086516;28;8994;-70
2023/03/29 05:50:10;;;;;;;;;12.00;9.00;;;;;-1.09;51.27;100328.16;5069896;28;8855;-78
2023/03/29 05:52:41;;;;;;;;;14.00;12.50;;;;;-0.92;49.37;100318.47;5073020;28;8898;-75
2023/03/29 05:55:11;;;;;;;;;22.25;18.75;;;;;-0.80;48.57;100329.28;5071354;28;8959;-77
2023/03/29 05:57:40;;;;;;;;;14.25;14.25;;;;;-0.60;47.33;100324.84;5088414;28;8870;-76
2023/03/29 06:00:22;;;;;;;;;10.00;10.00;;;;;-0.53;45.85;100323.38;5089938;28;8877;-76
2023/03/29 06:02:57;;;;;;;;;10.00;9.50;;;;;-0.39;44.65;100326.44;5009324;28;8878;-76
2023/03/29 06:05:38;;;;;;;;;14.75;11.50;;;;;-0.28;45.24;100321.69;5060771;28;8869;-81
2023/03/29 06:08:08;;;;;;;;;10.00;8.60;;;;;-0.30;44.35;100331.94;5060008;28;8940;-83
2023/03/29 06:11:00;;;;;;;;;15.00;10.80;;;;;-0.12;44.05;100342.06;5064787;28;8862;-84
2023/03/29 06:13:52;;;;;;;;;9.60;9.20;;;;;0.02;43.03;100340.84;4973094;28;8886;-83
2023/03/29 06:16:23;;;;;;;;;6.60;6.60;;;;;0.06;43.13;100339.22;4958287;28;8975;-82
2023/03/29 06:18:53;;;;;;;;;13.25;13.25;;;;;0.06;43.16;100349.56;4927179;28;9004;-82
2023/03/29 06:21:25;;;;;;;;;13.40;10.00;;;;;0.30;41.34;100346.09;4976992;28;8887;-83
2023/03/29 06:23:56;;;;;;;;;9.20;7.40;;;;;-0.16;42.90;100358.31;4954693;28;8883;-81
2023/03/29 06:26:34;;;;;;;;;11.60;10.40;;;;;0.16;42.47;100350.75;4971499;28;8880;-85
2023/03/29 06:29:04;;;;;;;;;9.40;9.40;;;;;-0.24;42.05;100350.25;4953964;28;8879;-85
2023/03/29 06:31:34;;;;;;;;;9.80;9.80;;;;;-0.05;41.84;100362.13;4930797;29;8852;-81
2023/03/29 06:34:06;;;;;;;;;10.80;10.80;;;;;-0.01;42.44;100358.84;4933382;29;8890;-84
2023/03/29 06:37:00;;;;;;;;;13.20;12.20;;;;;0.34;41.61;100345.34;4901759;29;8865;-84
2023/03/29 06:39:31;;;;;;;;;9.60;8.40;;;;;0.76;40.53;100343.25;4950873;29;8885;-81
2023/03/29 06:42:33;;;;;;;;;11.20;8.00;;;;;0.31;40.76;100351.28;4877131;29;8859;-80
2023/03/29 06:45:32;;;;;;;;;9.20;9.20;;;;;-0.09;41.44;100368.00;4882413;29;9674;-81
2023/03/29 06:48:06;;;;;;;;;5.40;5.40;;;;;-0.02;41.40;100362.22;4925169;29;8904;-81
2023/03/29 06:50:55;;;;;;;;;16.00;16.00;;;;;0.16;41.16;100382.69;4918675;29;9040;-82
2023/03/29 06:53:29;;;;;;;;;11.40;11.40;;;;;0.19;41.37;100380.19;4947590;28;8860;-80
2023/03/29 06:56:07;;;;;;;;;8.40;8.40;;;;;0.25;40.53;100385.59;4920186;29;8891;-80
2023/03/29 06:58:45;;;;;;;;;7.00;7.00;;;;;0.40;40.90;100382.63;4885121;29;8887;-79
2023/03/29 07:01:41;;;;;;;;;7.60;7.00;;;;;0.43;39.76;100374.13;4929095;29;8956;-81
2023/03/29 07:04:21;;;;;;;;;10.00;8.00;;;;;1.17;39.66;100363.56;4912837;29;8878;-80
2023/03/29 07:07:18;;;;;;;;;9.60;9.60;;;;;1.35;37.95;100360.63;4898724;29;8857;-80
2023/03/29 07:09:54;;;;;;;;;8.00;8.00;;;;;1.61;37.83;100362.25;4894744;29;8876;-81
2023/03/29 07:12:46;;;;;;;;;8.00;8.00;;;;;1.09;38.64;100365.91;4909658;29;8885;-81
2023/03/29 07:15:19;;;;;;;;;13.60;11.00;;;;;0.99;38.66;100372.53;4910902;29;8859;-80
2023/03/29 07:18:14;;;;;;;;;9.00;7.80;;;;;1.29;38.12;100373.41;4884459;29;9165;-82
2023/03/29 07:20:46;;;;;;;;;8.80;8.80;;;;;1.43;38.37;100370.38;4934536;29;8975;-81
2023/03/29 07:23:16;;;;;;;;;8.40;8.40;;;;;1.13;37.91;100380.72;4991869;28;8870;-81
2023/03/29 07:25:49;;;;;;;;;14.80;13.20;;;;;1.05;38.42;100370.13;5006514;28;9660;-83
2023/03/29 07:28:20;;;;;;;;;10.60;10.40;;;;;1.27;38.67;100369.88;5006307;28;9721;-81
2023/03/29 07:30:50;;;;;;;;;8.80;8.80;;;;;1.88;37.56;100378.53;4968629;28;8874;-80
2023/03/29 07:33:22;;;;;;;;;7.20;6.80;;;;;1.72;37.04;100372.06;4959304;28;8978;-81
2023/03/29 07:35:57;;;;;;;;;13.60;13.60;;;;;1.35;37.39;100374.47;4953094;28;8998;-80
2023/03/29 07:38:27;;;;;;;;;12.20;7.40;;;;;1.38;37.48;100374.53;4982875;28;8891;-79
2023/03/29 07:41:07;;;;;;;;;11.00;9.20;;;;;1.34;36.79;100369.25;5033472;28;8864;-81
2023/03/29 07:43:55;;;;;;;;;10.40;10.20;;;;;1.83;36.21;100360.28;5036172;28;9601;-81
2023/03/29 07:46:26;;;;;;;;;8.00;7.40;;;;;1.30;36.94;100364.81;5036902;28;8844;-81
2023/03/29 07:48:55;;;;;;;;;12.80;12.80;;;;;1.39;37.49;100371.13;5053098;28;9651;-82
2023/03/29 07:51:25;;;;;;;;;11.80;11.40;;;;;1.25;37.62;100372.44;4982618;28;8861;-82
2023/03/29 07:54:08;;;;;;;;;14.00;11.80;;;;;1.56;37.05;100371.63;5002512;28;8881;-83
2023/03/29 07:56:55;;;;;;;;;11.60;11.20;;;;;1.68;36.62;100373.69;5031859;28;8871;-82
2023/03/29 07:59:42;;;;;;;;;12.40;12.40;;;;;1.74;36.90;100376.44;5012552;28;10222;-82
2023/03/29 08:02:19;;;;;;;;;10.20;8.00;;;;;1.79;36.85;100368.81;4971077;28;9618;-81
2023/03/29 08:04:55;;;;;;;;;10.00;10.00;;;;;2.56;36.29;100370.81;5013291;28;8857;-84
2023/03/29 08:07:43;;;;;;;;;6.20;3.20;;;;;2.94;35.69;100365.69;5016521;28;8876;-81
2023/03/29 08:10:33;;;;;;;;;12.00;11.60;;;;;3.23;35.38;100368.94;5062598;28;8972;-81
2023/03/29 08:13:25;;;;;;;;;12.00;12.00;;;;;2.00;36.01;100378.91;5077878;28;8878;-83
2023/03/29 08:16:14;;;;;;;;;14.60;12.60;;;;;1.92;36.55;100375.19;5080193;28;8973;-83
2023/03/29 08:19:04;;;;;;;;;15.40;10.00;;;;;1.74;36.68;100376.44;5020849;28;9988;-85
2023/03/29 08:22:00;;;;;;;;;10.20;10.20;;;;;1.96;37.02;100375.34;5027562;28;8854;-84
2023/03/29 08:24:40;;;;;;;;;14.40;13.20;;;;;1.92;36.44;100373.50;5001554;28;9671;-82
2023/03/29 08:27:32;;;;;;;;;12.40;11.40;;;;;2.20;36.41;100382.00;4998062;28;8852;-83
2023/03/29 08:30:03;;;;;;;;;13.40;13.40;;;;;1.88;37.07;100382.03;4997064;28;8918;-83
2023/03/29 08:32:37;;;;;;;;;12.00;11.60;;;;;2.35;36.41;100369.47;5010351;28;8901;-83
2023/03/29 08:35:10;;;;;;;;;13.80;13.00;;;;;2.81;36.05;100365.41;4956208;28;8877;-82
2023/03/29 08:38:01;;;;;;;;;12.40;11.00;;;;;1.93;37.26;100364.88;4976587;28;9049;-82
2023/03/29 08:40:30;;;;;;;;;16.80;14.20;;;;;2.03;37.10;100379.88;4985807;28;8930;-81
2023/03/29 08:43:27;;;;;;;;;14.80;13.60;;;;;1.92;37.94;100373.50;4958016;28;8841;-82
2023/03/29 08:46:31;;;;;;;;;9.40;8.80;;;;;2.34;37.64;100365.09;4973128;28;8836;-84
2023/03/29 08:49:27;;;;;;;;;22.60;18.00;;;;;2.98;35.82;100357.13;4963053;28;8862;-84
2023/03/29 08:52:31;;;;;;;;;12.80;12.80;;;;;2.35;36.46;100345.22;4972733;28;8864;-83
2023/03/29 08:55:18;;;;;;;;;18.40;17.20;;;;;2.40;37.17;100357.47;4979131;28;8852;-82
2023/03/29 08:58:18;;;;;;;;;10.60;10.60;;;;;2.33;36.33;100352.97;4959441;28;8864;-83
2023/03/29 09:00:52;;;;;;;;;10.80;10.40;;;;;2.03;35.76;100364.31;4971568;28;8868;-83
2023/03/29 09:03:25;;;;;;;;;11.00;11.00;;;;;2.26;36.26;100352.75;4970481;28;8882;-84
2023/03/29 09:06:04;;;;;;;;;8.40;8.00;;;;;2.29;36.42;100360.63;4987161;28;8841;-80
2023/03/29 09:08:39;;;;;;;;;15.00;14.20;;;;;2.97;36.28;100364.03;5046069;28;8845;-84
2023/03/29 09:11:36;;;;;;;;;11.20;11.00;;;;;2.58;34.77;100372.63;5056232;28;8869;-80
2023/03/29 09:14:37;;;;;;;;;11.80;11.00;;;;;2.97;35.28;100374.41;5047806;28;8897;-81
2023/03/29 09:17:20;;;;;;;;;12.00;10.60;;;;;2.97;34.88;100364.03;5033427;28;8849;-82
2023/03/29 09:19:56;;;;;;;;;13.80;13.80;;;;;2.94;36.05;100363.09;5031793;28;8901;-80
2023/03/29 09:22:40;;;;;;;;;16.00;12.80;;;;;3.23;35.30;100355.09;5047692;28;8849;-80
2023/03/29 09:25:20;;;;;;;;;12.60;11.60;;;;;3.44;34.77;100345.19;5047394;28;8862;-79
2023/03/29 09:27:59;;;;;;;;;8.00;8.00;;;;;3.73;33.37;100343.19;5047014;28;8889;-81
2023/03/29 09:30:41;;;;;;;;;8.60;8.20;;;;;3.76;33.33;100355.38;5072207;28;8888;-81
2023/03/29 09:33:17;;;;;;;;;9.00;8.60;;;;;3.80;33.58;100341.56;5054461;28;9020;-79
2023/03/29 09:36:11;;;;;;;;;8.80;6.40;;;;;4.39;33.03;100338.28;4929318;28;8868;-82
2023/03/29 09:38:49;;;;;;;;;9.00;9.00;;;;;4.74;32.77;100331.06;4942317;28;8883;-84
2023/03/29 09:41:25;;;;;;;;;6.20;6.20;;;;;5.43;32.17;100327.72;4936644;28;8903;-80
2023/03/29 09:43:59;;;;;;;;;12.60;11.40;;;;;4.59;31.59;100333.44;4972416;28;8881;-81
2023/03/29 09:46:38;;;;;;;;;12.20;12.20;;;;;4.68;31.35;100337.94;4988002;28;8965;-82
2023/03/29 09:49:13;;;;;;;;;14.40;12.60;;;;;4.19;33.16;100335.38;4969295;28;8964;-80
2023/03/29 09:51:51;;;;;;;;;16.20;11.40;;;;;5.12;32.82;100333.34;4954253;28;8919;-83
2023/03/29 09:54:25;;;;;;;;;12.80;11.00;;;;;4.51;32.21;100330.72;4952375;28;8860;-80
2023/03/29 09:57:17;;;;;;;;;16.80;13.00;;;;;4.20;33.58;100336.25;4891100;29;8880;-80
2023/03/29 09:59:51;;;;;;;;;14.80;12.60;;;;;3.81;34.10;100340.75;4846161;29;9010;-79
2023/03/29 10:02:21;;;;;;;;;12.80;10.00;;;;;4.71;33.18;100317.13;4876700;29;8892;-80
2023/03/29 10:04:57;;;;;;;;;12.40;12.40;;;;;4.84;32.95;100315.59;4876401;29;8884;-82
2023/03/29 10:07:38;;;;;;;;;10.20;10.20;;;;;4.95;32.19;100314.00;4927918;28;8988;-78
2023/03/29 10:10:11;;;;;;;;;14.20;10.20;;;;;5.36;32.44;100305.91;5003523;28;8881;-82
2023/03/29 10:12:41;;;;;;;;;14.60;13.40;;;;;5.29;31.86;100304.91;4985874;28;8862;-80
2023/03/29 10:15:16;;;;;;;;;18.00;16.80;;;;;4.44;32.36;100325.38;4987122;28;8885;-83
2023/03/29 10:17:59;;;;;;;;;15.20;15.00;;;;;4.78;32.87;100307.69;4979850;28;8867;-80
2023/03/29 10:20:30;;;;;;;;;11.00;10.40;;;;;4.63;32.34;100296.16;4970447;28;8914;-79
2023/03/29 10:23:00;;;;;;;;;17.40;13.00;;;;;4.39;32.84;100303.59;4986576;28;8952;-79
2023/03/29 10:25:32;;;;;;;;;14.20;13.80;;;;;4.88;32.71;100297.41;5002410;28;8892;-73
2023/03/29 10:28:06;;;;;;;;;10.40;10.40;;;;;5.72;32.81;100287.22;5013728;28;8852;-70
2023/03/29 10:30:37;;;;;;;;;13.00;10.40;;;;;5.68;30.80;100288.03;5027573;28;8862;-78
2023/03/29 10:33:16;;;;;;;;;10.80;10.80;;;;;5.43;30.55;100281.66;5029133;28;8866;-78
2023/03/29 10:35:47;;;;;;;;;10.80;10.80;;;;;6.02;30.52;100282.28;5104019;28;8875;-78
2023/03/29 10:38:19;;;;;;;;;11.00;10.00;;;;;6.71;29.81;100280.22;5108616;28;8874;-78
2023/03/29 10:40:51;;;;;;;;;10.40;9.80;;;;;6.75;28.64;100270.66;5093207;28;8958;-77
2023/03/29 10:43:23;;;;;;;;;13.80;11.60;;;;;6.93;27.82;100262.97;5095779;28;8944;-77
2023/03/29 10:45:54;;;;;;;;;15.20;15.20;;;;;5.86;29.59;100273.44;5117978;28;8871;-76
2023/03/29 10:48:25;;;;;;;;;7.80;7.80;;;;;5.12;30.19;100270.81;5101709;28;8959;-75
2023/03/29 10:50:58;;;;;;;;;7.20;7.00;;;;;5.45;29.25;100256.50;5084973;28;8878;-76
2023/03/29 10:53:31;;;;;;;;;12.60;12.60;;;;;4.78;30.40;100245.19;5079963;28;8861;-75
2023/03/29 10:56:17;;;;;;;;;13.00;10.80;;;;;4.92;30.35;100254.03;5028598;28;8834;-74
2023/03/29 10:59:08;;;;;;;;;10.60;9.80;;;;;5.31;30.33;100242.41;5053533;28;8844;-77
2023/03/29 11:01:50;;;;;;;;;14.20;13.60;;;;;4.90;30.76;100246.19;5036297;28;8855;-77
2023/03/29 11:04:28;;;;;;;;;13.40;11.00;;;;;5.92;31.00;100240.44;5055987;28;8852;-75
2023/03/29 11:07:22;;;;;;;;;11.80;11.80;;;;;6.67;29.86;100232.31;5073537;28;8899;-75
2023/03/29 11:10:02;;;;;;;;;13.00;12.00;;;;;7.43;28.34;100232.69;5095223;28;8863;-76
2023/03/29 11:12:40;;;;;;;;;13.40;10.40;;;;;7.87;28.21;100214.47;5079845;28;8864;-75
2023/03/29 11:15:30;;;;;;;;;8.60;8.60;;;;;8.59;27.10;100208.34;5037980;28;8877;-76
2023/03/29 11:18:15;;;;;;;;;11.20;11.00;;;;;8.88;27.10;100203.88;5073737;28;8854;-75
2023/03/29 11:20:54;;;;;;;;;15.40;13.80;;;;;9.20;26.16;100202.00;5060158;28;8869;-80
2023/03/29 11:23:37;;;;;;;;;12.80;12.00;;;;;7.79;25.70;100208.31;5057551;28;8850;-79
2023/03/29 11:26:16;;;;;;;;;14.60;14.40;;;;;7.37;26.87;100196.91;5056282;28;8885;-80
2023/03/29 11:28:52;;;;;;;;;10.80;8.60;;;;;6.96;27.50;100213.31;5032858;28;8852;-80
2023/03/29 11:31:36;;;;;;;;;14.80;13.60;;;;;6.54;28.60;100201.75;5038439;28;8853;-79
2023/03/29 11:34:29;;;;;;;;;14.80;11.80;;;;;6.26;28.08;100205.91;5054393;28;8897;-81
2023/03/29 11:37:03;;;;;;;;;13.20;11.80;;;;;6.26;28.72;100198.94;5058430;28;8864;-82
2023/03/29 11:39:46;;;;;;;;;20.60;18.00;;;;;6.43;28.77;100196.44;5056289;28;9150;-81
2023/03/29 11:42:20;;;;;;;;;16.40;14.80;;;;;6.36;28.73;100199.00;5083417;28;8881;-82
2023/03/29 11:44:54;;;;;;;;;12.40;12.40;;;;;6.46;28.33;100193.88;5073753;28;8873;-80
2023/03/29 11:47:27;;;;;;;;;16.20;12.20;;;;;6.47;28.94;100190.41;5059122;28;8842;-79
2023/03/29 11:50:00;;;;;;;;;11.60;11.60;;;;;6.49;28.04;100195.63;5074143;28;8905;-80
2023/03/29 11:52:33;;;;;;;;;18.00;18.00;;;;;6.17;29.37;100196.28;5077749;28;8876;-80
2023/03/29 11:55:10;;;;;;;;;12.00;11.20;;;;;6.14;28.77;100188.44;5070175;28;8868;-84
2023/03/29 11:57:44;;;;;;;;;11.20;11.20;;;;;6.13;29.18;100186.66;5069787;28;8932;-80
2023/03/29 12:00:20;;;;;;;;;15.40;12.80;;;;;6.36;29.04;100188.56;5053050;28;8902;-81
2023/03/29 12:02:55;;;;;;;;;9.80;9.60;;;;;6.44;28.97;100184.28;5069943;28;8882;-81
2023/03/29 12:05:48;;;;;;;;;11.00;11.00;;;;;7.03;28.58;100180.25;5036402;28;8855;-81
2023/03/29 12:08:25;;;;;;;;;13.20;13.20;;;;;7.59;28.38;100174.31;5015328;28;8852;-82
2023/03/29 12:11:04;;;;;;;;;15.80;15.40;;;;;7.01;28.22;100180.25;5007725;28;8936;-81
2023/03/29 12:13:38;;;;;;;;;11.40;11.40;;;;;6.71;28.02;100184.41;5033585;28;8866;-81
2023/03/29 12:16:16;;;;;;;;;7.00;6.40;;;;;6.10;28.85;100179.69;4997274;28;8840;-79